Time;durP1;ratioP1;P1;durP2;ratioP2;P2;SDS_P1;SDS_P2;PMS_P1;PMS_P2;Temp;Humidity;BMP_temperature;BMP_pressure;BME280_temperature;BME280_humidity;BME280_pressure;Samples;Min_cycle;Max_cycle;Signal;HPM_P1;HPM_P2
2022/11/01 00:00:06;;;;;;;14.23;8.35;;;;;;;13.45;98.61;100698.06;6273587;22;20034;-82
2022/11/01 00:02:31;;;;;;;10.43;7.75;;;;;;;13.54;98.09;100685.91;6271512;22;20006;-82
2022/11/01 00:04:57;;;;;;;14.30;7.47;;;;;;;13.58;98.62;100676.72;6270633;22;20568;-82
2022/11/01 00:07:22;;;;;;;10.90;7.15;;;;;;;13.71;99.01;100683.00;6270097;22;20465;-82
2022/11/01 00:09:47;;;;;;;12.27;7.22;;;;;;;13.69;99.85;100667.03;6271401;22;20074;-82
2022/11/01 00:12:12;;;;;;;10.60;6.38;;;;;;;13.74;99.93;100666.72;6271798;22;20014;-83
2022/11/01 00:14:38;;;;;;;11.35;7.40;;;;;;;13.76;100.00;100670.16;6272663;22;19987;-83
2022/11/01 00:17:03;;;;;;;10.95;7.07;;;;;;;13.85;99.83;100666.00;6271293;22;20003;-83
2022/11/01 00:19:28;;;;;;;11.57;6.60;;;;;;;13.99;99.15;100675.78;6270181;22;20054;-82
2022/11/01 00:21:54;;;;;;;10.65;6.47;;;;;;;14.01;99.41;100673.88;6271860;22;20011;-83
2022/11/01 00:24:19;;;;;;;9.18;6.32;;;;;;;14.08;98.82;100669.78;6268864;22;20082;-83
2022/11/01 00:26:44;;;;;;;13.95;6.95;;;;;;;14.14;98.64;100670.25;6269905;22;20429;-83
2022/11/01 00:29:11;;;;;;;10.82;6.35;;;;;;;14.17;97.97;100664.69;6269965;22;19999;-83
2022/11/01 00:31:36;;;;;;;6.93;6.03;;;;;;;14.25;98.14;100661.44;6272871;22;20097;-82
2022/11/01 00:34:04;;;;;;;14.85;6.82;;;;;;;14.21;98.21;100670.66;6273895;22;20571;-82
2022/11/01 00:36:30;;;;;;;11.25;6.70;;;;;;;14.23;98.04;100657.19;6272777;22;20003;-84
2022/11/01 00:38:55;;;;;;;11.65;7.05;;;;;;;14.27;97.78;100664.91;6274678;22;20018;-83
2022/11/01 00:41:20;;;;;;;9.70;6.00;;;;;;;14.33;97.30;100674.31;6274989;22;20007;-82
2022/11/01 00:43:46;;;;;;;10.25;5.80;;;;;;;14.37;97.64;100665.97;6272246;22;19999;-83
2022/11/01 00:46:12;;;;;;;10.05;5.85;;;;;;;14.48;97.01;100672.41;6272726;22;20365;-83
2022/11/01 00:48:37;;;;;;;9.63;6.20;;;;;;;14.43;96.93;100665.56;6273332;22;20006;-82
2022/11/01 00:51:02;;;;;;;13.05;6.45;;;;;;;14.36;97.40;100666.94;6275081;22;20053;-82
2022/11/01 00:53:28;;;;;;;11.38;5.80;;;;;;;14.48;96.96;100669.72;6273868;22;20074;-82
2022/11/01 00:55:59;;;;;;;12.30;5.65;;;;;;;14.51;97.09;100661.53;6272610;22;20015;-84
2022/11/01 00:58:24;;;;;;;10.70;5.72;;;;;;;14.55;96.97;100655.00;6274607;22;20000;-81
2022/11/01 01:00:49;;;;;;;9.65;5.72;;;;;;;14.65;96.89;100659.56;6273115;22;20015;-82
2022/11/01 01:03:15;;;;;;;8.65;6.18;;;;;;;14.67;96.66;100659.44;6271305;22;20027;-83
2022/11/01 01:05:40;;;;;;;9.80;6.55;;;;;;;14.63;96.70;100653.47;6271547;22;19992;-82
2022/11/01 01:08:05;;;;;;;8.32;6.05;;;;;;;14.54;97.17;100646.06;6269860;22;20055;-81
2022/11/01 01:10:31;;;;;;;10.68;6.40;;;;;;;14.59;97.24;100654.66;6271294;22;20068;-83
2022/11/01 01:12:56;;;;;;;9.20;6.25;;;;;;;14.60;97.25;100650.16;6272402;22;20016;-82
2022/11/01 01:15:21;;;;;;;10.05;6.13;;;;;;;14.57;97.89;100648.53;6273059;22;20349;-82
2022/11/01 01:17:47;;;;;;;12.38;6.43;;;;;;;14.60;97.40;100647.47;6274307;22;20015;-83
2022/11/01 01:20:13;;;;;;;14.75;6.43;;;;;;;14.61;97.82;100639.31;6273456;22;20006;-83
2022/11/01 01:22:38;;;;;;;10.88;6.15;;;;;;;14.62;97.90;100657.09;6273037;22;20004;-83
2022/11/01 01:25:04;;;;;;;10.65;6.25;;;;;;;14.55;98.26;100644.28;6272407;22;20010;-83
2022/11/01 01:27:29;;;;;;;9.38;6.18;;;;;;;14.52;98.76;100645.34;6271976;22;20014;-83
2022/11/01 01:29:55;;;;;;;8.55;5.80;;;;;;;14.52;98.82;100645.34;6272535;22;20004;-82
2022/11/01 01:32:23;;;;;;;12.43;6.43;;;;;;;14.62;98.64;100649.06;6272320;22;20426;-83
2022/11/01 01:34:49;;;;;;;8.95;6.22;;;;;;;14.58;98.50;100647.56;6268288;22;20524;-82
2022/11/01 01:37:14;;;;;;;10.07;6.03;;;;;;;14.60;98.63;100647.47;6268919;22;20034;-82
2022/11/01 01:39:40;;;;;;;8.52;6.53;;;;;;;14.66;98.33;100661.28;6268716;22;19996;-83
2022/11/01 01:42:29;;;;;;;10.27;6.43;;;;;;;14.64;98.44;100657.88;6271374;22;20663;-82
2022/11/01 01:44:54;;;;;;;8.52;5.93;;;;;;;14.59;98.73;100649.31;6271064;22;20031;-83
2022/11/01 01:47:19;;;;;;;9.65;6.68;;;;;;;14.60;99.24;100650.16;6270237;22;20011;-82
2022/11/01 01:49:48;;;;;;;15.13;6.65;;;;;;;14.53;98.97;100627.44;6267429;22;20008;-83
2022/11/01 01:52:14;;;;;;;10.18;6.32;;;;;;;14.62;99.40;100648.22;6271157;22;20000;-82
2022/11/01 01:54:39;;;;;;;8.98;6.10;;;;;;;14.62;99.31;100649.06;6271000;22;20019;-82
2022/11/01 01:57:05;;;;;;;14.02;6.50;;;;;;;14.74;99.14;100650.00;6269815;22;20006;-82
2022/11/01 01:59:31;;;;;;;12.65;6.75;;;;;;;14.71;98.93;100636.84;6272703;22;20006;-82
2022/11/01 02:01:57;;;;;;;10.90;6.20;;;;;;;14.75;98.96;100641.00;6273211;22;20019;-83
2022/11/01 02:04:29;;;;;;;11.88;6.40;;;;;;;14.82;98.48;100641.44;6273099;22;20000;-82
2022/11/01 02:06:56;;;;;;;11.30;6.30;;;;;;;14.89;97.84;100624.81;6273685;22;20042;-83
2022/11/01 02:09:22;;;;;;;9.27;6.22;;;;;;;14.95;97.38;100635.06;6273096;22;20007;-83
2022/11/01 02:11:47;;;;;;;8.80;6.40;;;;;;;14.99;97.55;100632.19;6275130;22;20025;-83
2022/11/01 02:14:14;;;;;;;9.35;6.13;;;;;;;15.07;96.63;100643.19;6274588;22;20010;-83
2022/11/01 02:17:17;;;;;;;11.23;5.97;;;;;;;15.02;97.22;100638.19;6275114;22;20056;-82
2022/11/01 02:20:11;;;;;;;12.15;6.25;;;;;;;15.17;96.59;100645.13;6275226;22;20007;-83
2022/11/01 02:23:14;;;;;;;10.13;6.15;;;;;;;15.16;96.35;100647.88;6251795;22;20018;-82
2022/11/01 02:25:51;;;;;;;10.90;6.10;;;;;;;15.14;96.55;100656.06;6273079;22;20018;-83
2022/11/01 02:28:38;;;;;;;9.18;6.32;;;;;;;15.05;96.79;100647.81;6275547;22;20003;-83
2022/11/01 02:31:04;;;;;;;8.50;5.97;;;;;;;15.02;96.68;100640.84;6275900;22;20000;-83
2022/11/01 02:33:38;;;;;;;9.88;5.88;;;;;;;15.02;97.03;100637.31;6274876;22;20010;-82
2022/11/01 02:36:33;;;;;;;8.52;6.50;;;;;;;14.97;96.95;100636.81;6274993;22;20014;-82
2022/11/01 02:39:08;;;;;;;8.27;5.97;;;;;;;14.94;97.10;100637.88;6273865;22;20441;-83
2022/11/01 02:42:32;;;;;;;8.32;5.90;;;;;;;14.91;97.30;100636.25;6298946;22;20022;-82
2022/11/01 02:45:04;;;;;;;8.40;5.85;;;;;;;14.88;97.29;100641.88;6209143;23;20294;-82
2022/11/01 02:47:31;;;;;;;9.05;6.10;;;;;;;14.99;97.21;100645.59;6210256;23;20036;-80
2022/11/01 02:50:01;;;;;;;9.73;6.40;;;;;;;15.00;97.19;100652.66;6209048;23;20498;-82
2022/11/01 02:52:29;;;;;;;10.43;5.90;;;;;;;15.02;97.79;100648.06;6208980;23;20017;-82
2022/11/01 02:54:57;;;;;;;8.45;5.90;;;;;;;15.01;97.48;100657.06;6209563;23;20079;-82
2022/11/01 02:57:38;;;;;;;7.65;5.40;;;;;;;14.85;98.35;100650.13;6210288;23;20021;-82
2022/11/01 03:00:24;;;;;;;8.07;5.80;;;;;;;14.82;98.33;100653.00;6210675;23;20016;-83
2022/11/01 03:03:19;;;;;;;8.65;5.75;;;;;;;14.90;97.43;100657.81;6211622;23;20040;-83
2022/11/01 03:05:47;;;;;;;7.68;5.00;;;;;;;14.99;97.34;100656.31;6200348;23;20008;-84
2022/11/01 03:08:20;;;;;;;8.27;5.03;;;;;;;14.98;97.18;100658.13;6207812;23;20008;-83
2022/11/01 03:11:14;;;;;;;9.52;5.38;;;;;;;15.11;96.62;100682.22;6210672;23;20005;-83
2022/11/01 03:13:59;;;;;;;10.93;5.57;;;;;;;15.16;96.64;100674.69;6207098;23;20087;-83
2022/11/01 03:16:24;;;;;;;8.73;5.60;;;;;;;15.05;96.66;100671.94;6258103;22;20065;-82
2022/11/01 03:19:02;;;;;;;8.57;4.80;;;;;;;14.95;98.25;100688.69;6272661;22;20000;-81
2022/11/01 03:21:35;;;;;;;8.80;5.20;;;;;;;14.92;98.23;100688.91;6271073;22;20237;-83
2022/11/01 03:24:15;;;;;;;6.65;4.72;;;;;;;15.01;96.83;100698.13;6275378;22;20022;-82
2022/11/01 03:26:43;;;;;;;8.40;5.40;;;;;;;15.06;96.45;100687.06;6283586;22;20146;-84
2022/11/01 03:29:10;;;;;;;7.35;5.05;;;;;;;15.04;95.68;100691.66;6280695;22;20058;-83
2022/11/01 03:31:38;;;;;;;6.28;4.00;;;;;;;15.13;91.66;100696.34;6278433;22;20042;-83
2022/11/01 03:34:15;;;;;;;8.73;4.22;;;;;;;15.12;91.92;100706.22;6273008;22;20750;-83
2022/11/01 03:36:50;;;;;;;7.18;4.35;;;;;;;15.07;91.31;100726.28;6272285;22;20074;-82
2022/11/01 03:39:23;;;;;;;6.82;3.85;;;;;;;15.08;88.24;100723.50;6271790;22;20082;-82
2022/11/01 03:41:54;;;;;;;3.92;3.35;;;;;;;15.05;86.91;100721.06;6272852;22;20033;-83
2022/11/01 03:44:19;;;;;;;4.30;3.10;;;;;;;14.96;86.91;100727.03;6270912;22;20426;-83
2022/11/01 03:46:45;;;;;;;3.72;2.95;;;;;;;14.89;85.71;100734.69;6273069;22;19999;-82
2022/11/01 03:49:15;;;;;;;5.85;2.22;;;;;;;14.85;82.91;100741.22;6272728;22;20006;-82
2022/11/01 03:51:41;;;;;;;3.65;2.25;;;;;;;14.82;80.41;100752.16;6270795;22;20061;-84
2022/11/01 03:54:09;;;;;;;3.92;2.15;;;;;;;14.76;80.21;100760.63;6271035;22;20682;-84
2022/11/01 03:56:35;;;;;;;3.17;1.70;;;;;;;14.70;77.91;100753.00;6272904;22;20011;-83
2022/11/01 03:59:00;;;;;;;3.20;1.58;;;;;;;14.57;78.04;100753.00;6270955;22;20383;-83
2022/11/01 04:01:26;;;;;;;4.10;1.98;;;;;;;14.44;78.08;100776.19;6272800;22;20016;-83
2022/11/01 04:03:51;;;;;;;5.05;1.73;;;;;;;14.41;77.16;100771.91;6273755;22;20000;-81
2022/11/01 04:06:16;;;;;;;1.55;1.30;;;;;;;14.39;75.52;100771.16;6273737;22;20022;-84
2022/11/01 04:08:41;;;;;;;3.15;1.60;;;;;;;14.38;74.52;100772.13;6273168;22;20000;-83
2022/11/01 04:11:07;;;;;;;1.95;1.25;;;;;;;14.31;72.96;100772.63;6275021;22;20008;-83
2022/11/01 04:13:32;;;;;;;4.35;1.35;;;;;;;14.28;73.12;100792.44;6274286;22;20008;-82
2022/11/01 04:21:29;;;;;;;3.08;1.30;;;;;;;14.04;71.77;100835.06;6273688;22;20018;-83
2022/11/01 04:23:55;;;;;;;4.07;1.08;;;;;;;13.96;71.40;100834.69;6272841;22;20007;-83
2022/11/01 04:26:22;;;;;;;3.55;1.20;;;;;;;13.84;71.07;100820.31;6274576;22;20465;-84
2022/11/01 04:28:56;;;;;;;2.20;1.00;;;;;;;13.86;69.44;100833.59;6272431;22;20077;-83
2022/11/01 04:31:30;;;;;;;2.70;1.27;;;;;;;13.78;69.14;100847.47;6272583;22;20042;-83
2022/11/01 04:33:57;;;;;;;4.85;1.52;;;;;;;13.72;68.68;100850.53;6271934;22;20015;-82
2022/11/01 04:36:23;;;;;;;1.58;0.90;;;;;;;13.69;69.08;100858.75;6272402;22;20121;-82
2022/11/01 04:38:50;;;;;;;3.03;1.08;;;;;;;13.70;67.99;100849.75;6271838;22;20398;-83
2022/11/01 04:41:17;;;;;;;2.90;1.20;;;;;;;13.60;69.40;100854.84;6273688;22;20340;-83
2022/11/01 04:43:43;;;;;;;2.45;1.20;;;;;;;13.62;68.43;100868.97;6272968;22;20491;-82
2022/11/01 04:46:08;;;;;;;2.33;1.13;;;;;;;13.56;69.50;100858.66;6273129;22;20003;-83
2022/11/01 04:48:34;;;;;;;4.55;1.25;;;;;;;13.50;69.54;100861.72;6270826;22;20676;-84
2022/11/01 04:51:01;;;;;;;2.13;1.40;;;;;;;13.50;70.25;100885.78;6273615;22;20426;-83
2022/11/01 04:53:26;;;;;;;6.05;1.58;;;;;;;13.52;70.06;100889.22;6273721;22;20003;-83
2022/11/01 04:55:52;;;;;;;2.45;1.08;;;;;;;13.49;71.20;100899.25;6272875;22;20014;-83
2022/11/01 04:58:17;;;;;;;3.50;1.33;;;;;;;13.48;71.20;100905.56;6272057;22;20022;-83
2022/11/01 05:00:42;;;;;;;3.25;1.20;;;;;;;13.45;71.51;100907.44;6272678;22;20031;-83
2022/11/01 05:03:10;;;;;;;3.65;1.48;;;;;;;13.38;72.13;100927.53;6272848;22;20008;-83
2022/11/01 05:05:35;;;;;;;3.05;1.30;;;;;;;13.28;72.77;100915.66;6272830;22;20003;-84
2022/11/01 05:08:03;;;;;;;2.10;1.20;;;;;;;13.18;73.15;100927.84;6273083;22;20007;-82
2022/11/01 05:10:29;;;;;;;3.67;1.10;;;;;;;13.09;73.72;100931.06;6275282;22;20063;-83
2022/11/01 05:12:54;;;;;;;3.25;1.50;;;;;;;13.02;74.13;100945.75;6276284;22;20065;-83
2022/11/01 05:15:20;;;;;;;2.05;1.33;;;;;;;13.01;74.86;100955.56;6272119;22;20000;-83
2022/11/01 05:17:45;;;;;;;2.08;1.13;;;;;;;12.98;74.80;100955.75;6271652;22;20010;-83
2022/11/01 05:20:10;;;;;;;4.10;1.25;;;;;;;12.99;74.93;100954.78;6273339;22;20147;-84
2022/11/01 05:22:36;;;;;;;3.28;1.35;;;;;;;13.05;74.81;100956.25;6272560;22;20003;-83
2022/11/01 05:25:02;;;;;;;4.90;1.60;;;;;;;12.96;75.67;100963.00;6272261;22;20011;-83
2022/11/01 05:27:27;;;;;;;3.17;1.27;;;;;;;12.96;75.43;100969.22;6273326;22;20004;-83
2022/11/01 05:29:52;;;;;;;5.18;1.42;;;;;;;12.93;75.76;100963.19;6273577;22;20028;-83
2022/11/01 05:32:17;;;;;;;5.35;1.52;;;;;;;12.97;75.18;100970.06;6273911;22;20008;-84
2022/11/01 05:34:43;;;;;;;3.15;1.33;;;;;;;12.92;75.53;100981.03;6274982;22;20004;-84
2022/11/01 05:37:09;;;;;;;3.00;1.30;;;;;;;12.84;75.60;100977.94;6274175;22;20003;-83
2022/11/01 05:39:34;;;;;;;4.50;1.70;;;;;;;12.78;75.08;100974.75;6274326;22;20054;-84
2022/11/01 05:42:00;;;;;;;4.97;1.50;;;;;;;12.81;73.83;100979.91;6274993;22;19999;-83
2022/11/01 05:44:25;;;;;;;3.28;1.30;;;;;;;12.74;73.82;100984.75;6273890;22;20306;-83
2022/11/01 05:46:50;;;;;;;4.55;1.50;;;;;;;12.68;73.56;100974.44;6273638;22;20419;-83
2022/11/01 05:49:15;;;;;;;4.10;1.50;;;;;;;12.68;72.78;100987.78;6274523;22;20003;-83
2022/11/01 05:51:41;;;;;;;3.00;1.33;;;;;;;12.58;72.98;100997.25;6272052;22;20008;-84
2022/11/01 05:54:06;;;;;;;2.75;1.20;;;;;;;12.55;72.93;101000.09;6271506;22;20003;-83
2022/11/01 05:56:31;;;;;;;2.45;1.30;;;;;;;12.52;72.84;101000.28;6274253;22;20083;-84
2022/11/01 05:58:57;;;;;;;3.20;1.15;;;;;;;12.49;73.39;100995.09;6274275;22;20003;-83
2022/11/01 06:01:22;;;;;;;2.72;1.20;;;;;;;12.43;73.29;101013.19;6274437;22;20456;-81
2022/11/01 06:03:50;;;;;;;4.55;1.58;;;;;;;12.36;74.28;101018.94;6274476;22;20011;-83
2022/11/01 06:06:16;;;;;;;3.67;1.60;;;;;;;12.30;74.05;101016.63;6274110;22;20007;-83
2022/11/01 06:08:41;;;;;;;4.78;1.60;;;;;;;12.35;73.30;101019.91;6276389;22;20083;-83
2022/11/01 06:11:06;;;;;;;4.30;1.52;;;;;;;12.33;72.75;101021.78;6275236;22;20471;-83
2022/11/01 06:13:32;;;;;;;4.25;1.50;;;;;;;12.30;72.70;101036.19;6273696;22;20008;-83
2022/11/01 06:16:03;;;;;;;3.15;1.35;;;;;;;12.16;73.15;101028.03;6277149;22;20000;-81
2022/11/01 06:18:28;;;;;;;5.43;1.60;;;;;;;12.19;73.20;101042.09;6277769;22;20531;-82
2022/11/01 06:20:54;;;;;;;4.07;1.40;;;;;;;12.18;73.49;101047.53;6281470;22;20090;-83
2022/11/01 06:23:19;;;;;;;4.53;1.77;;;;;;;12.16;73.63;101052.94;6279999;22;20014;-81
2022/11/01 06:25:45;;;;;;;6.18;1.50;;;;;;;12.14;74.07;101057.50;6274765;22;20008;-84
2022/11/01 06:28:10;;;;;;;3.17;1.60;;;;;;;12.10;74.09;101052.41;6273148;22;20000;-84
2022/11/01 06:30:37;;;;;;;3.90;1.63;;;;;;;12.08;74.91;101056.94;6273793;22;20099;-82
2022/11/01 06:33:03;;;;;;;9.10;2.13;;;;;;;12.01;75.01;101061.78;6270219;22;20010;-83
2022/11/01 06:35:28;;;;;;;6.78;1.58;;;;;;;12.02;75.81;101068.81;6276324;22;20007;-82
2022/11/01 06:37:54;;;;;;;4.97;1.65;;;;;;;12.04;76.12;101069.63;6274276;22;20083;-84
2022/11/01 06:40:20;;;;;;;4.93;1.75;;;;;;;11.93;76.47;101072.84;6273235;22;20045;-82
2022/11/01 06:42:45;;;;;;;5.07;1.50;;;;;;;11.92;77.09;101068.47;6269406;22;20026;-82
2022/11/01 06:45:11;;;;;;;5.55;1.65;;;;;;;11.89;77.03;101070.41;6268092;22;20426;-83
2022/11/01 06:47:36;;;;;;;6.05;3.00;;;;;;;11.84;76.82;101069.81;6269209;22;20007;-83
2022/11/01 06:50:02;;;;;;;5.32;1.75;;;;;;;11.88;76.66;101080.22;6270229;22;20004;-83
2022/11/01 06:52:28;;;;;;;5.63;1.50;;;;;;;11.91;76.80;101096.09;6269619;22;19998;-83
2022/11/01 06:54:53;;;;;;;5.25;1.98;;;;;;;11.91;76.27;101105.84;6268415;22;20070;-84
2022/11/01 06:57:18;;;;;;;5.53;1.98;;;;;;;11.87;76.14;101091.84;6269272;22;20181;-83
2022/11/01 06:59:43;;;;;;;4.60;1.70;;;;;;;11.84;76.40;101092.00;6273610;22;20114;-83
2022/11/01 07:02:09;;;;;;;5.55;2.10;;;;;;;11.83;76.06;101108.94;6273360;22;20019;-83
2022/11/01 07:04:35;;;;;;;6.55;2.00;;;;;;;11.82;76.45;101101.84;6274255;22;20011;-84
2022/11/01 07:07:01;;;;;;;7.53;2.17;;;;;;;11.78;76.38;101108.28;6274115;22;20011;-83
2022/11/01 07:09:26;;;;;;;4.15;1.40;;;;;;;11.80;76.65;101114.41;6273105;22;20004;-82
2022/11/01 07:11:52;;;;;;;5.20;1.65;;;;;;;11.79;76.41;101118.03;6270190;22;20061;-82
2022/11/01 07:14:17;;;;;;;5.97;2.50;;;;;;;11.73;76.62;101115.66;6267196;22;20057;-82
2022/11/01 07:16:42;;;;;;;7.55;2.05;;;;;;;11.77;75.66;101130.56;6271089;22;20010;-84
2022/11/01 07:19:07;;;;;;;8.57;2.40;;;;;;;11.78;75.88;101137.59;6275634;22;19999;-84
2022/11/01 07:21:33;;;;;;;6.82;2.10;;;;;;;11.82;75.56;101149.84;6277197;22;20090;-83
2022/11/01 07:23:58;;;;;;;9.13;2.10;;;;;;;11.77;76.13;101146.56;6276006;22;20038;-82
2022/11/01 07:26:23;;;;;;;4.47;1.90;;;;;;;11.76;75.68;101149.31;6273146;22;20014;-83
2022/11/01 07:28:48;;;;;;;6.45;2.22;;;;;;;11.72;75.92;101159.25;6272111;22;20003;-84
2022/11/01 07:31:14;;;;;;;6.80;1.95;;;;;;;11.70;76.02;101171.78;6277921;22;20422;-87
2022/11/01 07:33:39;;;;;;;4.15;1.60;;;;;;;11.73;75.66;101176.97;6280059;22;20004;-85
2022/11/01 07:36:05;;;;;;;6.60;2.08;;;;;;;11.71;75.99;101169.06;6274878;22;20075;-85
2022/11/01 07:38:31;;;;;;;6.13;2.00;;;;;;;11.69;76.21;101168.28;6275021;22;19999;-83
2022/11/01 07:40:56;;;;;;;5.50;1.95;;;;;;;11.68;75.84;101163.88;6273428;22;20000;-83
2022/11/01 07:43:22;;;;;;;5.60;1.92;;;;;;;11.71;75.65;101192.22;6270553;22;20341;-84
2022/11/01 07:45:48;;;;;;;7.88;2.55;;;;;;;11.72;75.65;101189.47;6272054;22;20003;-84
2022/11/01 07:48:15;;;;;;;11.40;2.53;;;;;;;11.72;75.60;101191.25;6273045;22;20383;-83
2022/11/01 07:50:42;;;;;;;7.47;2.30;;;;;;;11.69;75.17;101184.25;6269599;22;20016;-82
2022/11/01 07:53:25;;;;;;;9.32;2.55;;;;;;;11.72;75.25;101199.25;6269275;22;20003;-84
2022/11/01 07:55:50;;;;;;;9.70;2.80;;;;;;;11.71;74.29;101200.22;6273862;22;20035;-82
2022/11/01 07:58:16;;;;;;;7.55;2.80;;;;;;;11.69;74.59;101199.41;6270643;22;20008;-82
2022/11/01 08:00:43;;;;;;;8.57;2.50;;;;;;;11.69;74.46;101216.25;6273067;22;20037;-82
2022/11/01 08:03:18;;;;;;;8.70;2.65;;;;;;;11.75;74.35;101227.59;6270522;22;20007;-83
2022/11/01 08:05:44;;;;;;;9.05;2.88;;;;;;;11.68;73.90;101208.34;6273437;22;20003;-82
2022/11/01 08:08:10;;;;;;;11.40;3.40;;;;;;;11.71;74.12;101218.88;6273289;22;20329;-82
2022/11/01 08:10:36;;;;;;;9.15;2.70;;;;;;;11.69;73.42;101216.25;6274157;22;20004;-84
2022/11/01 08:13:03;;;;;;;10.95;2.95;;;;;;;11.71;73.26;101232.22;6274900;22;20003;-82
2022/11/01 08:15:29;;;;;;;12.60;2.97;;;;;;;11.70;74.05;101230.47;6273698;22;20014;-84
2022/11/01 08:17:56;;;;;;;10.13;2.88;;;;;;;11.76;72.72;101235.50;6276347;22;20029;-84
2022/11/01 08:20:22;;;;;;;10.88;2.80;;;;;;;11.77;72.88;101244.38;6274431;22;20000;-83
2022/11/01 08:22:47;;;;;;;7.65;2.60;;;;;;;11.78;72.23;101227.41;6270836;22;20569;-84
2022/11/01 08:25:13;;;;;;;8.10;2.22;;;;;;;11.78;72.52;101233.59;6273225;22;20003;-83
2022/11/01 08:27:38;;;;;;;11.50;3.22;;;;;;;11.77;71.75;101236.38;6273573;22;20027;-83
2022/11/01 08:30:04;;;;;;;10.57;2.92;;;;;;;11.82;71.92;101242.31;6272580;22;20000;-84
2022/11/01 08:32:29;;;;;;;10.82;2.75;;;;;;;11.82;71.95;101237.84;6273318;22;20506;-82
2022/11/01 08:34:54;;;;;;;12.75;2.80;;;;;;;11.86;72.27;101252.78;6270925;22;20311;-83
2022/11/01 08:37:20;;;;;;;10.77;2.83;;;;;;;11.89;71.63;101252.66;6273099;22;20027;-83
2022/11/01 08:39:45;;;;;;;7.82;2.42;;;;;;;11.92;71.60;101262.31;6273267;22;20065;-82
2022/11/01 08:42:10;;;;;;;8.75;2.75;;;;;;;11.94;71.21;101250.59;6272772;22;20007;-83
2022/11/01 08:44:36;;;;;;;14.20;2.75;;;;;;;11.99;71.39;101257.53;6274438;22;20011;-84
2022/11/01 08:47:02;;;;;;;8.98;2.38;;;;;;;11.93;71.45;101248.03;6274321;22;20020;-83
2022/11/01 08:49:27;;;;;;;10.73;2.63;;;;;;;12.00;71.31;101265.47;6273596;22;20433;-83
2022/11/01 08:51:54;;;;;;;11.07;2.70;;;;;;;12.05;71.50;101265.22;6273035;22;20076;-82
2022/11/01 08:54:19;;;;;;;9.75;3.17;;;;;;;12.07;71.27;101250.00;6271621;22;20075;-82
2022/11/01 08:56:44;;;;;;;13.60;3.35;;;;;;;12.08;71.46;101267.72;6273746;22;20008;-83
2022/11/01 08:59:10;;;;;;;9.30;2.92;;;;;;;12.10;71.42;101273.88;6273431;22;20145;-82
2022/11/01 09:01:35;;;;;;;9.75;3.13;;;;;;;12.10;71.32;101260.53;6272813;22;20012;-83
2022/11/01 09:04:01;;;;;;;8.88;2.85;;;;;;;12.12;71.17;101251.50;6271909;22;20004;-83
2022/11/01 09:06:27;;;;;;;11.02;2.65;;;;;;;12.17;71.01;101264.63;6273365;22;20083;-84
2022/11/01 09:08:53;;;;;;;12.43;3.30;;;;;;;12.19;70.56;101300.06;6287317;22;20233;-83
2022/11/01 09:11:20;;;;;;;10.00;2.67;;;;;;;12.21;71.13;101274.19;6279755;22;20014;-83
2022/11/01 09:13:46;;;;;;;8.68;2.80;;;;;;;12.24;71.28;101273.16;6286513;22;20004;-83
2022/11/01 09:16:11;;;;;;;10.85;2.65;;;;;;;12.28;70.88;101283.59;6284619;22;20035;-83
2022/11/01 09:18:36;;;;;;;9.80;2.85;;;;;;;12.29;70.92;101284.44;6277526;22;19996;-82
2022/11/01 09:21:02;;;;;;;11.05;2.72;;;;;;;12.26;70.90;101271.28;6275268;22;20050;-82
2022/11/01 09:23:27;;;;;;;8.68;2.90;;;;;;;12.30;71.21;101289.72;6275678;22;20057;-82
2022/11/01 09:25:59;;;;;;;12.88;3.30;;;;;;;12.37;70.91;101295.59;6277256;22;20087;-84
2022/11/01 09:28:25;;;;;;;11.57;2.75;;;;;;;12.31;71.12;101280.78;6276756;22;20011;-82
2022/11/01 09:30:50;;;;;;;10.38;2.80;;;;;;;12.35;71.36;101285.03;6277593;22;20011;-83
2022/11/01 09:33:16;;;;;;;12.45;3.80;;;;;;;12.40;71.76;101276.78;6275982;22;20333;-84
2022/11/01 09:35:41;;;;;;;12.32;3.35;;;;;;;12.44;71.08;101295.22;6276926;22;20003;-83
2022/11/01 09:38:06;;;;;;;11.63;3.30;;;;;;;12.43;71.55;101281.97;6274515;22;20061;-84
2022/11/01 09:40:42;;;;;;;12.30;3.35;;;;;;;12.49;71.42;101288.78;6277097;22;20031;-83
2022/11/01 09:43:10;;;;;;;11.07;3.35;;;;;;;12.55;71.60;101299.16;6274011;22;20432;-83
2022/11/01 09:45:36;;;;;;;12.82;3.25;;;;;;;12.57;71.16;101316.81;6276642;22;20003;-84
2022/11/01 09:48:05;;;;;;;10.57;3.05;;;;;;;12.62;71.23;101319.25;6276443;22;20011;-82
2022/11/01 09:50:33;;;;;;;10.75;3.22;;;;;;;12.59;71.62;101314.94;6276644;22;20043;-83
2022/11/01 09:53:01;;;;;;;12.52;3.50;;;;;;;12.68;71.01;101318.94;6276225;22;19999;-85
2022/11/01 09:55:48;;;;;;;11.68;2.92;;;;;;;12.75;71.67;101333.72;6278699;22;20003;-82
2022/11/01 09:58:46;;;;;;;8.38;2.70;;;;;;;12.79;71.17;101329.94;6274873;22;20007;-81
2022/11/01 10:01:39;;;;;;;12.02;2.80;;;;;;;12.83;70.08;101342.19;6273699;22;20471;-81
2022/11/01 10:04:24;;;;;;;9.20;3.30;;;;;;;12.86;70.81;101347.34;6275707;22;20075;-82
2022/11/01 10:06:54;;;;;;;12.13;3.17;;;;;;;12.89;70.65;101344.53;6275794;22;20318;-81
2022/11/01 10:10:02;;;;;;;9.18;2.83;;;;;;;12.95;70.73;101351.34;6276214;22;19996;-81
2022/11/01 10:12:51;;;;;;;10.25;2.97;;;;;;;12.99;70.54;101346.69;6275772;22;20047;-82
2022/11/01 10:15:43;;;;;;;11.13;2.83;;;;;;;13.02;70.63;101339.38;6275750;22;20003;-82
2022/11/01 10:18:26;;;;;;;10.20;3.65;;;;;;;13.08;70.18;101364.91;6273867;22;20325;-82
2022/11/01 10:20:51;;;;;;;11.18;3.20;;;;;;;13.21;69.58;101348.16;6274609;22;20015;-83
2022/11/01 10:23:25;;;;;;;9.02;2.63;;;;;;;13.35;70.16;101355.47;6270403;22;20433;-84
2022/11/01 10:25:53;;;;;;;;;;;;;;;13.53;70.04;101364.28;6273387;22;20018;-83
2022/11/01 10:28:31;;;;;;;7.45;2.67;;;;;;;13.64;68.93;101351.19;6274446;22;19914;-83
2022/11/01 10:31:01;;;;;;;11.60;2.75;;;;;;;13.69;68.27;101356.28;6274104;22;19999;-83
2022/11/01 10:33:39;;;;;;;13.80;3.13;;;;;;;13.62;68.68;101366.44;6274377;22;20087;-85
2022/11/01 10:36:14;;;;;;;9.85;2.83;;;;;;;13.60;69.34;101360.34;6274655;22;20008;-83
2022/11/01 10:38:45;;;;;;;12.23;3.08;;;;;;;13.56;68.86;101361.44;6272170;22;20053;-82
2022/11/01 10:41:17;;;;;;;11.95;3.10;;;;;;;13.55;68.37;101367.75;6272763;22;20086;-83
2022/11/01 10:43:46;;;;;;;12.10;2.88;;;;;;;13.54;68.26;101371.34;6274826;22;20124;-84
2022/11/01 10:46:16;;;;;;;11.00;2.85;;;;;;;13.52;68.54;101361.69;6272966;22;20011;-83
2022/11/01 10:48:49;;;;;;;9.85;2.80;;;;;;;13.51;69.29;101363.53;6274925;22;20556;-82
2022/11/01 10:51:17;;;;;;;8.00;2.85;;;;;;;13.53;68.78;101366.94;6271818;22;20429;-83
2022/11/01 10:53:48;;;;;;;7.60;2.40;;;;;;;13.60;69.12;101370.16;6274527;22;20049;-82
2022/11/01 10:56:17;;;;;;;11.52;3.08;;;;;;;13.60;68.30;101367.50;6272201;22;20004;-83
2022/11/01 10:58:57;;;;;;;11.48;2.78;;;;;;;13.62;68.61;101370.94;6273124;22;20442;-82
2022/11/01 11:01:27;;;;;;;11.25;2.72;;;;;;;13.63;68.97;101359.31;6271414;22;20014;-81
2022/11/01 11:03:55;;;;;;;10.10;3.13;;;;;;;13.64;68.88;101366.38;6270042;22;20015;-84
2022/11/01 11:06:20;;;;;;;9.27;2.60;;;;;;;13.69;68.38;101358.97;6272477;22;20008;-82
2022/11/01 11:08:52;;;;;;;10.85;3.45;;;;;;;13.79;68.24;101360.16;6271986;22;20003;-84
2022/11/01 11:11:28;;;;;;;10.70;2.60;;;;;;;13.80;67.88;101363.72;6271625;22;20011;-84
2022/11/01 11:13:55;;;;;;;10.98;2.85;;;;;;;13.76;67.69;101344.28;6273021;22;20010;-84
2022/11/01 11:16:30;;;;;;;12.50;2.92;;;;;;;13.82;67.88;101359.13;6275415;22;20384;-84
2022/11/01 11:19:19;;;;;;;9.80;2.88;;;;;;;13.86;68.39;101360.69;6278470;22;20421;-84
2022/11/01 11:21:47;;;;;;;8.43;2.47;;;;;;;13.87;67.73;101362.41;6277567;22;20007;-83
2022/11/01 11:24:33;;;;;;;12.85;2.72;;;;;;;13.93;67.86;101359.41;6278842;22;20070;-83
2022/11/01 11:27:00;;;;;;;9.93;2.42;;;;;;;13.89;67.84;101356.03;6270201;22;20034;-83
2022/11/01 11:29:28;;;;;;;11.82;2.60;;;;;;;13.97;67.14;101346.72;6273502;22;20022;-84
2022/11/01 11:31:56;;;;;;;7.72;2.50;;;;;;;13.97;67.18;101357.41;6272656;22;20447;-82
2022/11/01 11:34:27;;;;;;;10.93;2.72;;;;;;;14.01;67.61;101356.28;6272753;22;19996;-84